sensor_id;sensor_type;location;lat;lon;timestamp;P1;durP1;ratioP1;P2;durP2;ratioP2
9052;SDS011;4561;47.450;7.516;2022-08-04T00:02:09;2.72;;;2.15;;
9052;SDS011;4561;47.450;7.516;2022-08-04T00:05:50;7.07;;;2.92;;
9052;SDS011;4561;47.450;7.516;2022-08-04T00:09:29;2.53;;;2.30;;
9052;SDS011;4561;47.450;7.516;2022-08-04T00:12:51;2.60;;;2.40;;
9052;SDS011;4561;47.450;7.516;2022-08-04T00:16:14;5.38;;;2.35;;
9052;SDS011;4561;47.450;7.516;2022-08-04T00:19:37;5.40;;;2.20;;
9052;SDS011;4561;47.450;7.516;2022-08-04T00:23:01;2.30;;;2.10;;
9052;SDS011;4561;47.450;7.516;2022-08-04T00:26:21;2.55;;;2.35;;
9052;SDS011;4561;47.450;7.516;2022-08-04T00:29:42;2.65;;;2.45;;
9052;SDS011;4561;47.450;7.516;2022-08-04T00:33:05;2.88;;;2.42;;
9052;SDS011;4561;47.450;7.516;2022-08-04T00:36:26;3.00;;;2.63;;
9052;SDS011;4561;47.450;7.516;2022-08-04T00:39:50;3.42;;;2.63;;
9052;SDS011;4561;47.450;7.516;2022-08-04T00:50:44;3.15;;;2.25;;
9052;SDS011;4561;47.450;7.516;2022-08-04T01:01:58;2.67;;;2.38;;
9052;SDS011;4561;47.450;7.516;2022-08-04T01:05:20;3.72;;;2.42;;
9052;SDS011;4561;47.450;7.516;2022-08-04T01:08:48;3.10;;;2.45;;
9052;SDS011;4561;47.450;7.516;2022-08-04T01:12:26;3.03;;;2.67;;
9052;SDS011;4561;47.450;7.516;2022-08-04T01:16:04;2.90;;;2.20;;
9052;SDS011;4561;47.450;7.516;2022-08-04T01:26:51;3.93;;;2.47;;
9052;SDS011;4561;47.450;7.516;2022-08-04T01:30:16;4.25;;;2.58;;
9052;SDS011;4561;47.450;7.516;2022-08-04T01:33:37;2.90;;;2.33;;
9052;SDS011;4561;47.450;7.516;2022-08-04T01:37:02;3.10;;;2.55;;
9052;SDS011;4561;47.450;7.516;2022-08-04T01:40:27;3.33;;;2.63;;
9052;SDS011;4561;47.450;7.516;2022-08-04T01:43:48;2.78;;;2.35;;
9052;SDS011;4561;47.450;7.516;2022-08-04T01:47:09;4.50;;;2.25;;
9052;SDS011;4561;47.450;7.516;2022-08-04T01:50:34;3.23;;;2.50;;
9052;SDS011;4561;47.450;7.516;2022-08-04T01:53:58;5.20;;;2.60;;
9052;SDS011;4561;47.450;7.516;2022-08-04T01:57:18;5.07;;;2.38;;
9052;SDS011;4561;47.450;7.516;2022-08-04T02:00:39;2.65;;;2.20;;
9052;SDS011;4561;47.450;7.516;2022-08-04T02:04:03;3.40;;;2.30;;
9052;SDS011;4561;47.450;7.516;2022-08-04T02:11:26;5.63;;;2.20;;
9052;SDS011;4561;47.450;7.516;2022-08-04T02:18:22;3.28;;;2.42;;
9052;SDS011;4561;47.450;7.516;2022-08-04T02:21:47;3.97;;;2.40;;
9052;SDS011;4561;47.450;7.516;2022-08-04T02:25:16;2.60;;;2.40;;
9052;SDS011;4561;47.450;7.516;2022-08-04T02:28:46;2.30;;;2.10;;
9052;SDS011;4561;47.450;7.516;2022-08-04T02:32:12;3.60;;;2.43;;
9052;SDS011;4561;47.450;7.516;2022-08-04T02:35:35;2.40;;;2.20;;
9052;SDS011;4561;47.450;7.516;2022-08-04T02:38:58;5.67;;;2.33;;
9052;SDS011;4561;47.450;7.516;2022-08-04T02:42:22;3.80;;;2.47;;
9052;SDS011;4561;47.450;7.516;2022-08-04T02:45:42;4.27;;;2.30;;
9052;SDS011;4561;47.450;7.516;2022-08-04T02:49:07;2.80;;;2.57;;
9052;SDS011;4561;47.450;7.516;2022-08-04T02:52:28;2.50;;;2.30;;
9052;SDS011;4561;47.450;7.516;2022-08-04T02:55:51;2.50;;;2.30;;
9052;SDS011;4561;47.450;7.516;2022-08-04T02:59:14;2.25;;;2.05;;
9052;SDS011;4561;47.450;7.516;2022-08-04T03:13:36;4.20;;;2.73;;
9052;SDS011;4561;47.450;7.516;2022-08-04T03:17:14;4.23;;;2.33;;
9052;SDS011;4561;47.450;7.516;2022-08-04T03:46:14;4.33;;;2.40;;
9052;SDS011;4561;47.450;7.516;2022-08-04T03:53:35;5.80;;;2.40;;
9052;SDS011;4561;47.450;7.516;2022-08-04T04:22:54;2.97;;;2.67;;
9052;SDS011;4561;47.450;7.516;2022-08-04T04:42:03;3.10;;;2.57;;
9052;SDS011;4561;47.450;7.516;2022-08-04T04:45:48;3.17;;;2.60;;
9052;SDS011;4561;47.450;7.516;2022-08-04T04:53:09;5.50;;;2.50;;
9052;SDS011;4561;47.450;7.516;2022-08-04T05:00:10;4.07;;;2.70;;
9052;SDS011;4561;47.450;7.516;2022-08-04T05:03:38;4.30;;;2.73;;
9052;SDS011;4561;47.450;7.516;2022-08-04T05:15:05;5.97;;;2.60;;
9052;SDS011;4561;47.450;7.516;2022-08-04T05:18:29;2.90;;;2.60;;
9052;SDS011;4561;47.450;7.516;2022-08-04T05:25:25;3.60;;;2.73;;
9052;SDS011;4561;47.450;7.516;2022-08-04T05:28:56;3.55;;;2.53;;
9052;SDS011;4561;47.450;7.516;2022-08-04T05:32:22;3.97;;;2.67;;
9052;SDS011;4561;47.450;7.516;2022-08-04T05:35:45;3.00;;;2.70;;
9052;SDS011;4561;47.450;7.516;2022-08-04T05:39:10;2.90;;;2.70;;
9052;SDS011;4561;47.450;7.516;2022-08-04T05:42:46;3.60;;;2.88;;
9052;SDS011;4561;47.450;7.516;2022-08-04T05:46:08;2.72;;;2.50;;
9052;SDS011;4561;47.450;7.516;2022-08-04T05:49:28;2.90;;;2.70;;
9052;SDS011;4561;47.450;7.516;2022-08-04T05:52:49;5.10;;;2.95;;
9052;SDS011;4561;47.450;7.516;2022-08-04T05:56:11;3.90;;;2.72;;
9052;SDS011;4561;47.450;7.516;2022-08-04T05:59:34;3.70;;;3.10;;
9052;SDS011;4561;47.450;7.516;2022-08-04T06:02:58;3.17;;;2.60;;
9052;SDS011;4561;47.450;7.516;2022-08-04T06:06:20;4.63;;;3.00;;
9052;SDS011;4561;47.450;7.516;2022-08-04T06:09:40;3.00;;;2.80;;
9052;SDS011;4561;47.450;7.516;2022-08-04T06:13:02;2.80;;;2.50;;
9052;SDS011;4561;47.450;7.516;2022-08-04T06:16:28;3.80;;;2.58;;
9052;SDS011;4561;47.450;7.516;2022-08-04T06:19:56;3.40;;;2.78;;
9052;SDS011;4561;47.450;7.516;2022-08-04T06:23:22;5.35;;;2.90;;
9052;SDS011;4561;47.450;7.516;2022-08-04T06:26:46;4.55;;;2.70;;
9052;SDS011;4561;47.450;7.516;2022-08-04T06:30:08;3.15;;;2.80;;
9052;SDS011;4561;47.450;7.516;2022-08-04T06:33:33;5.13;;;2.95;;
9052;SDS011;4561;47.450;7.516;2022-08-04T06:36:54;3.13;;;2.83;;
9052;SDS011;4561;47.450;7.516;2022-08-04T06:40:15;4.85;;;3.13;;
9052;SDS011;4561;47.450;7.516;2022-08-04T06:43:39;5.38;;;2.85;;
9052;SDS011;4561;47.450;7.516;2022-08-04T06:47:08;3.25;;;2.75;;
9052;SDS011;4561;47.450;7.516;2022-08-04T06:50:29;4.68;;;2.70;;
9052;SDS011;4561;47.450;7.516;2022-08-04T06:53:51;3.35;;;2.58;;
9052;SDS011;4561;47.450;7.516;2022-08-04T06:57:12;3.42;;;2.80;;
9052;SDS011;4561;47.450;7.516;2022-08-04T07:00:37;6.45;;;2.53;;
9052;SDS011;4561;47.450;7.516;2022-08-04T07:03:58;3.55;;;2.88;;
9052;SDS011;4561;47.450;7.516;2022-08-04T07:07:19;6.53;;;2.90;;
9052;SDS011;4561;47.450;7.516;2022-08-04T07:10:39;5.97;;;2.70;;
9052;SDS011;4561;47.450;7.516;2022-08-04T07:14:00;3.58;;;3.20;;
9052;SDS011;4561;47.450;7.516;2022-08-04T07:17:21;4.47;;;2.90;;
9052;SDS011;4561;47.450;7.516;2022-08-04T07:20:43;2.90;;;2.70;;
9052;SDS011;4561;47.450;7.516;2022-08-04T07:24:04;4.18;;;2.83;;
9052;SDS011;4561;47.450;7.516;2022-08-04T07:27:27;5.75;;;3.00;;
9052;SDS011;4561;47.450;7.516;2022-08-04T07:30:48;4.40;;;2.90;;
9052;SDS011;4561;47.450;7.516;2022-08-04T07:34:09;2.97;;;2.67;;
9052;SDS011;4561;47.450;7.516;2022-08-04T07:37:31;5.43;;;2.88;;
9052;SDS011;4561;47.450;7.516;2022-08-04T07:40:54;3.65;;;2.88;;
9052;SDS011;4561;47.450;7.516;2022-08-04T07:44:15;3.00;;;2.80;;
9052;SDS011;4561;47.450;7.516;2022-08-04T07:47:35;3.47;;;2.40;;
9052;SDS011;4561;47.450;7.516;2022-08-04T07:50:59;4.40;;;2.70;;
9052;SDS011;4561;47.450;7.516;2022-08-04T07:54:20;3.53;;;2.78;;
9052;SDS011;4561;47.450;7.516;2022-08-04T07:57:43;6.13;;;2.80;;
9052;SDS011;4561;47.450;7.516;2022-08-04T08:01:06;3.38;;;2.88;;
9052;SDS011;4561;47.450;7.516;2022-08-04T08:04:28;7.43;;;3.10;;
9052;SDS011;4561;47.450;7.516;2022-08-04T08:07:49;5.18;;;2.80;;
9052;SDS011;4561;47.450;7.516;2022-08-04T08:11:10;3.78;;;2.70;;
9052;SDS011;4561;47.450;7.516;2022-08-04T08:14:31;4.03;;;2.50;;
9052;SDS011;4561;47.450;7.516;2022-08-04T08:17:52;8.65;;;2.60;;
9052;SDS011;4561;47.450;7.516;2022-08-04T08:21:12;2.65;;;2.30;;
9052;SDS011;4561;47.450;7.516;2022-08-04T08:24:34;4.85;;;2.70;;
9052;SDS011;4561;47.450;7.516;2022-08-04T08:27:58;5.30;;;2.53;;
9052;SDS011;4561;47.450;7.516;2022-08-04T08:31:21;4.90;;;2.42;;
9052;SDS011;4561;47.450;7.516;2022-08-04T08:34:41;6.47;;;2.15;;
9052;SDS011;4561;47.450;7.516;2022-08-04T08:38:05;2.00;;;1.85;;
9052;SDS011;4561;47.450;7.516;2022-08-04T08:45:33;2.47;;;2.10;;
9052;SDS011;4561;47.450;7.516;2022-08-04T08:49:08;3.10;;;2.10;;
9052;SDS011;4561;47.450;7.516;2022-08-04T08:56:32;4.13;;;2.08;;
9052;SDS011;4561;47.450;7.516;2022-08-04T09:10:53;2.17;;;1.50;;
9052;SDS011;4561;47.450;7.516;2022-08-04T09:14:21;2.95;;;1.60;;
9052;SDS011;4561;47.450;7.516;2022-08-04T09:18:22;3.63;;;1.40;;
9052;SDS011;4561;47.450;7.516;2022-08-04T09:21:57;4.82;;;1.90;;
9052;SDS011;4561;47.450;7.516;2022-08-04T09:25:25;2.25;;;1.48;;
9052;SDS011;4561;47.450;7.516;2022-08-04T09:36:03;3.15;;;1.83;;
9052;SDS011;4561;47.450;7.516;2022-08-04T09:39:54;3.10;;;1.70;;
9052;SDS011;4561;47.450;7.516;2022-08-04T09:47:20;2.30;;;1.88;;
9052;SDS011;4561;47.450;7.516;2022-08-04T09:50:45;3.47;;;1.77;;
9052;SDS011;4561;47.450;7.516;2022-08-04T10:02:10;5.20;;;1.50;;
9052;SDS011;4561;47.450;7.516;2022-08-04T10:19:46;2.70;;;1.83;;
9052;SDS011;4561;47.450;7.516;2022-08-04T10:23:36;2.63;;;1.52;;
9052;SDS011;4561;47.450;7.516;2022-08-04T10:30:37;2.00;;;1.80;;
9052;SDS011;4561;47.450;7.516;2022-08-04T10:34:09;2.03;;;1.70;;
9052;SDS011;4561;47.450;7.516;2022-08-04T10:55:56;9.68;;;1.98;;
9052;SDS011;4561;47.450;7.516;2022-08-04T10:59:38;3.80;;;1.70;;
9052;SDS011;4561;47.450;7.516;2022-08-04T11:06:24;3.08;;;1.60;;
9052;SDS011;4561;47.450;7.516;2022-08-04T11:09:45;8.48;;;1.75;;
9052;SDS011;4561;47.450;7.516;2022-08-04T11:13:09;3.17;;;1.40;;
9052;SDS011;4561;47.450;7.516;2022-08-04T11:20:26;3.17;;;1.13;;
9052;SDS011;4561;47.450;7.516;2022-08-04T11:24:13;5.03;;;1.17;;
9052;SDS011;4561;47.450;7.516;2022-08-04T11:31:18;3.45;;;1.20;;
9052;SDS011;4561;47.450;7.516;2022-08-04T11:34:47;3.50;;;1.00;;
9052;SDS011;4561;47.450;7.516;2022-08-04T11:38:24;3.17;;;1.20;;
9052;SDS011;4561;47.450;7.516;2022-08-04T11:41:55;3.75;;;1.20;;
9052;SDS011;4561;47.450;7.516;2022-08-04T11:45:19;1.88;;;1.40;;
9052;SDS011;4561;47.450;7.516;2022-08-04T11:48:57;5.85;;;1.40;;
9052;SDS011;4561;47.450;7.516;2022-08-04T11:52:22;5.03;;;1.40;;
9052;SDS011;4561;47.450;7.516;2022-08-04T11:55:43;2.95;;;1.15;;
9052;SDS011;4561;47.450;7.516;2022-08-04T11:59:11;2.97;;;1.30;;
9052;SDS011;4561;47.450;7.516;2022-08-04T12:06:17;3.47;;;1.27;;
9052;SDS011;4561;47.450;7.516;2022-08-04T12:17:03;2.00;;;1.15;;
9052;SDS011;4561;47.450;7.516;2022-08-04T12:20:24;3.50;;;1.67;;
9052;SDS011;4561;47.450;7.516;2022-08-04T12:23:47;3.28;;;1.50;;
9052;SDS011;4561;47.450;7.516;2022-08-04T12:27:13;6.57;;;1.45;;
9052;SDS011;4561;47.450;7.516;2022-08-04T12:30:36;3.72;;;1.23;;
9052;SDS011;4561;47.450;7.516;2022-08-04T12:34:07;2.60;;;1.30;;
9052;SDS011;4561;47.450;7.516;2022-08-04T12:41:03;5.70;;;1.40;;
9052;SDS011;4561;47.450;7.516;2022-08-04T12:44:23;5.07;;;1.55;;
9052;SDS011;4561;47.450;7.516;2022-08-04T12:47:48;4.03;;;1.45;;
9052;SDS011;4561;47.450;7.516;2022-08-04T12:51:10;3.03;;;1.40;;
9052;SDS011;4561;47.450;7.516;2022-08-04T12:54:30;5.47;;;1.50;;
9052;SDS011;4561;47.450;7.516;2022-08-04T12:57:54;3.15;;;1.55;;
9052;SDS011;4561;47.450;7.516;2022-08-04T13:04:35;4.20;;;1.65;;
9052;SDS011;4561;47.450;7.516;2022-08-04T13:08:01;4.80;;;1.40;;
9052;SDS011;4561;47.450;7.516;2022-08-04T13:11:23;2.72;;;1.52;;
9052;SDS011;4561;47.450;7.516;2022-08-04T13:14:44;2.47;;;1.30;;
9052;SDS011;4561;47.450;7.516;2022-08-04T13:18:07;1.65;;;1.30;;
9052;SDS011;4561;47.450;7.516;2022-08-04T13:21:31;3.03;;;1.13;;
9052;SDS011;4561;47.450;7.516;2022-08-04T13:24:52;3.15;;;1.30;;
9052;SDS011;4561;47.450;7.516;2022-08-04T13:28:20;5.68;;;1.40;;
9052;SDS011;4561;47.450;7.516;2022-08-04T13:31:43;3.33;;;1.42;;
9052;SDS011;4561;47.450;7.516;2022-08-04T13:35:05;6.60;;;1.60;;
9052;SDS011;4561;47.450;7.516;2022-08-04T13:38:27;1.88;;;1.23;;
9052;SDS011;4561;47.450;7.516;2022-08-04T13:41:52;2.42;;;1.50;;
9052;SDS011;4561;47.450;7.516;2022-08-04T13:45:13;2.03;;;1.60;;
9052;SDS011;4561;47.450;7.516;2022-08-04T13:48:35;4.45;;;1.25;;
9052;SDS011;4561;47.450;7.516;2022-08-04T13:52:04;1.50;;;1.40;;
9052;SDS011;4561;47.450;7.516;2022-08-04T13:55:31;2.13;;;1.52;;
9052;SDS011;4561;47.450;7.516;2022-08-04T13:58:54;5.68;;;1.50;;
9052;SDS011;4561;47.450;7.516;2022-08-04T14:05:45;2.25;;;1.48;;
9052;SDS011;4561;47.450;7.516;2022-08-04T14:09:27;1.08;;;1.08;;
9052;SDS011;4561;47.450;7.516;2022-08-04T14:12:49;1.80;;;1.48;;
9052;SDS011;4561;47.450;7.516;2022-08-04T14:16:19;1.38;;;1.27;;
9052;SDS011;4561;47.450;7.516;2022-08-04T14:23:09;3.22;;;1.40;;
9052;SDS011;4561;47.450;7.516;2022-08-04T14:26:33;2.35;;;1.70;;
9052;SDS011;4561;47.450;7.516;2022-08-04T14:29:54;4.45;;;1.77;;
9052;SDS011;4561;47.450;7.516;2022-08-04T14:33:14;1.73;;;1.60;;
9052;SDS011;4561;47.450;7.516;2022-08-04T14:36:42;5.57;;;1.60;;
9052;SDS011;4561;47.450;7.516;2022-08-04T14:40:02;2.10;;;1.38;;
9052;SDS011;4561;47.450;7.516;2022-08-04T14:43:23;4.78;;;1.40;;
9052;SDS011;4561;47.450;7.516;2022-08-04T14:46:50;2.00;;;1.80;;
9052;SDS011;4561;47.450;7.516;2022-08-04T14:50:12;3.35;;;1.58;;
9052;SDS011;4561;47.450;7.516;2022-08-04T14:53:33;3.50;;;1.60;;
9052;SDS011;4561;47.450;7.516;2022-08-04T14:56:57;2.78;;;1.50;;
9052;SDS011;4561;47.450;7.516;2022-08-04T15:00:38;1.55;;;1.45;;
9052;SDS011;4561;47.450;7.516;2022-08-04T15:04:04;2.83;;;1.40;;
9052;SDS011;4561;47.450;7.516;2022-08-04T15:07:29;2.95;;;1.70;;
9052;SDS011;4561;47.450;7.516;2022-08-04T15:10:50;1.77;;;1.40;;
9052;SDS011;4561;47.450;7.516;2022-08-04T15:14:12;2.15;;;1.38;;
9052;SDS011;4561;47.450;7.516;2022-08-04T15:17:33;6.57;;;1.63;;
9052;SDS011;4561;47.450;7.516;2022-08-04T15:20:54;3.85;;;1.60;;
9052;SDS011;4561;47.450;7.516;2022-08-04T15:24:14;2.90;;;1.60;;
9052;SDS011;4561;47.450;7.516;2022-08-04T15:27:35;4.47;;;1.40;;
9052;SDS011;4561;47.450;7.516;2022-08-04T15:30:57;3.30;;;1.70;;
9052;SDS011;4561;47.450;7.516;2022-08-04T15:34:20;3.97;;;1.60;;
9052;SDS011;4561;47.450;7.516;2022-08-04T15:41:22;3.03;;;1.80;;
9052;SDS011;4561;47.450;7.516;2022-08-04T15:51:40;1.75;;;1.65;;
9052;SDS011;4561;47.450;7.516;2022-08-04T15:58:59;3.17;;;1.98;;
9052;SDS011;4561;47.450;7.516;2022-08-04T16:05:52;3.45;;;1.60;;
9052;SDS011;4561;47.450;7.516;2022-08-04T16:09:20;2.15;;;1.48;;
9052;SDS011;4561;47.450;7.516;2022-08-04T16:12:52;3.20;;;1.70;;
9052;SDS011;4561;47.450;7.516;2022-08-04T16:16:13;1.85;;;1.52;;
9052;SDS011;4561;47.450;7.516;2022-08-04T16:19:58;2.90;;;1.63;;
9052;SDS011;4561;47.450;7.516;2022-08-04T16:27:13;2.25;;;1.67;;
9052;SDS011;4561;47.450;7.516;2022-08-04T16:30:39;2.88;;;1.83;;
9052;SDS011;4561;47.450;7.516;2022-08-04T16:34:00;2.63;;;1.75;;
9052;SDS011;4561;47.450;7.516;2022-08-04T16:37:33;1.63;;;1.52;;
9052;SDS011;4561;47.450;7.516;2022-08-04T16:40:59;1.80;;;1.70;;
9052;SDS011;4561;47.450;7.516;2022-08-04T16:44:33;4.18;;;1.60;;
9052;SDS011;4561;47.450;7.516;2022-08-04T16:48:00;6.25;;;1.50;;
9052;SDS011;4561;47.450;7.516;2022-08-04T16:51:22;1.63;;;1.52;;
9052;SDS011;4561;47.450;7.516;2022-08-04T16:54:50;2.65;;;1.60;;
9052;SDS011;4561;47.450;7.516;2022-08-04T16:58:11;2.25;;;1.60;;
9052;SDS011;4561;47.450;7.516;2022-08-04T17:01:31;2.63;;;1.65;;
9052;SDS011;4561;47.450;7.516;2022-08-04T17:04:54;3.88;;;1.67;;
9052;SDS011;4561;47.450;7.516;2022-08-04T17:08:15;3.75;;;1.90;;
9052;SDS011;4561;47.450;7.516;2022-08-04T17:11:40;1.65;;;1.55;;
9052;SDS011;4561;47.450;7.516;2022-08-04T17:15:02;5.50;;;1.70;;
9052;SDS011;4561;47.450;7.516;2022-08-04T17:18:24;2.78;;;1.67;;
9052;SDS011;4561;47.450;7.516;2022-08-04T17:21:49;3.05;;;1.60;;
9052;SDS011;4561;47.450;7.516;2022-08-04T17:25:13;6.85;;;1.77;;
9052;SDS011;4561;47.450;7.516;2022-08-04T17:28:33;6.40;;;1.88;;
9052;SDS011;4561;47.450;7.516;2022-08-04T17:31:54;5.80;;;1.90;;
9052;SDS011;4561;47.450;7.516;2022-08-04T17:35:15;1.60;;;1.50;;
9052;SDS011;4561;47.450;7.516;2022-08-04T17:42:06;1.58;;;1.45;;
9052;SDS011;4561;47.450;7.516;2022-08-04T17:45:26;1.63;;;1.52;;
9052;SDS011;4561;47.450;7.516;2022-08-04T17:49:00;1.48;;;1.38;;
9052;SDS011;4561;47.450;7.516;2022-08-04T17:52:28;2.35;;;1.60;;
9052;SDS011;4561;47.450;7.516;2022-08-04T17:55:49;2.80;;;1.60;;
9052;SDS011;4561;47.450;7.516;2022-08-04T17:59:10;1.73;;;1.60;;
9052;SDS011;4561;47.450;7.516;2022-08-04T18:02:35;2.50;;;1.75;;
9052;SDS011;4561;47.450;7.516;2022-08-04T18:05:55;5.15;;;1.90;;
9052;SDS011;4561;47.450;7.516;2022-08-04T18:09:23;1.50;;;1.40;;
9052;SDS011;4561;47.450;7.516;2022-08-04T18:12:46;2.03;;;1.58;;
9052;SDS011;4561;47.450;7.516;2022-08-04T18:16:07;1.73;;;1.50;;
9052;SDS011;4561;47.450;7.516;2022-08-04T18:19:28;3.45;;;1.58;;
9052;SDS011;4561;47.450;7.516;2022-08-04T18:22:49;2.80;;;2.42;;
9052;SDS011;4561;47.450;7.516;2022-08-04T18:26:09;3.10;;;1.85;;
9052;SDS011;4561;47.450;7.516;2022-08-04T18:29:32;5.53;;;1.30;;
9052;SDS011;4561;47.450;7.516;2022-08-04T18:32:53;2.03;;;1.80;;
9052;SDS011;4561;47.450;7.516;2022-08-04T18:38:04;5.10;;;1.67;;
9052;SDS011;4561;47.450;7.516;2022-08-04T18:41:26;3.95;;;1.63;;
9052;SDS011;4561;47.450;7.516;2022-08-04T18:44:46;3.10;;;1.70;;
9052;SDS011;4561;47.450;7.516;2022-08-04T18:48:07;1.70;;;1.60;;
9052;SDS011;4561;47.450;7.516;2022-08-04T18:51:28;4.95;;;1.77;;
9052;SDS011;4561;47.450;7.516;2022-08-04T18:54:48;3.35;;;1.88;;
9052;SDS011;4561;47.450;7.516;2022-08-04T18:58:08;1.98;;;1.88;;
9052;SDS011;4561;47.450;7.516;2022-08-04T19:01:29;2.58;;;2.00;;
9052;SDS011;4561;47.450;7.516;2022-08-04T19:04:50;3.92;;;1.83;;
9052;SDS011;4561;47.450;7.516;2022-08-04T19:08:11;2.40;;;1.75;;
9052;SDS011;4561;47.450;7.516;2022-08-04T19:11:35;2.28;;;1.88;;
9052;SDS011;4561;47.450;7.516;2022-08-04T19:14:56;3.40;;;1.73;;
9052;SDS011;4561;47.450;7.516;2022-08-04T19:18:17;2.70;;;2.13;;
9052;SDS011;4561;47.450;7.516;2022-08-04T19:21:37;2.08;;;1.90;;
9052;SDS011;4561;47.450;7.516;2022-08-04T19:24:57;1.98;;;1.85;;
9052;SDS011;4561;47.450;7.516;2022-08-04T19:28:18;6.32;;;1.95;;
9052;SDS011;4561;47.450;7.516;2022-08-04T19:31:38;6.30;;;2.28;;
9052;SDS011;4561;47.450;7.516;2022-08-04T19:35:02;4.05;;;2.08;;
9052;SDS011;4561;47.450;7.516;2022-08-04T19:38:23;3.13;;;1.80;;
9052;SDS011;4561;47.450;7.516;2022-08-04T19:41:43;3.95;;;1.98;;
9052;SDS011;4561;47.450;7.516;2022-08-04T19:45:04;2.03;;;1.83;;
9052;SDS011;4561;47.450;7.516;2022-08-04T19:48:25;1.80;;;1.70;;
9052;SDS011;4561;47.450;7.516;2022-08-04T19:51:46;2.20;;;1.80;;
9052;SDS011;4561;47.450;7.516;2022-08-04T19:55:07;1.83;;;1.67;;
9052;SDS011;4561;47.450;7.516;2022-08-04T19:58:30;5.65;;;2.10;;
9052;SDS011;4561;47.450;7.516;2022-08-04T20:01:50;3.03;;;1.73;;
9052;SDS011;4561;47.450;7.516;2022-08-04T20:05:11;2.78;;;2.00;;
9052;SDS011;4561;47.450;7.516;2022-08-04T20:08:32;3.50;;;1.85;;
9052;SDS011;4561;47.450;7.516;2022-08-04T20:11:53;5.15;;;1.75;;
9052;SDS011;4561;47.450;7.516;2022-08-04T20:15:15;3.22;;;2.08;;
9052;SDS011;4561;47.450;7.516;2022-08-04T20:18:38;4.63;;;1.90;;
9052;SDS011;4561;47.450;7.516;2022-08-04T20:21:58;1.73;;;1.63;;
9052;SDS011;4561;47.450;7.516;2022-08-04T20:25:18;1.77;;;1.67;;
9052;SDS011;4561;47.450;7.516;2022-08-04T20:28:39;4.50;;;1.70;;
9052;SDS011;4561;47.450;7.516;2022-08-04T20:31:59;4.40;;;1.77;;
9052;SDS011;4561;47.450;7.516;2022-08-04T20:35:20;4.55;;;1.77;;
9052;SDS011;4561;47.450;7.516;2022-08-04T20:38:45;5.50;;;1.85;;
9052;SDS011;4561;47.450;7.516;2022-08-04T20:42:06;5.40;;;1.95;;
9052;SDS011;4561;47.450;7.516;2022-08-04T20:45:27;2.20;;;1.92;;
9052;SDS011;4561;47.450;7.516;2022-08-04T20:48:48;3.03;;;1.63;;
9052;SDS011;4561;47.450;7.516;2022-08-04T20:52:08;3.10;;;1.55;;
9052;SDS011;4561;47.450;7.516;2022-08-04T20:55:29;2.10;;;1.70;;
9052;SDS011;4561;47.450;7.516;2022-08-04T20:58:49;3.20;;;1.80;;
9052;SDS011;4561;47.450;7.516;2022-08-04T21:02:09;2.38;;;1.70;;
9052;SDS011;4561;47.450;7.516;2022-08-04T21:05:30;2.10;;;2.00;;
9052;SDS011;4561;47.450;7.516;2022-08-04T21:08:50;1.98;;;1.77;;
9052;SDS011;4561;47.450;7.516;2022-08-04T21:12:11;1.92;;;1.60;;
9052;SDS011;4561;47.450;7.516;2022-08-04T21:15:37;1.67;;;1.58;;
9052;SDS011;4561;47.450;7.516;2022-08-04T21:18:58;1.70;;;1.60;;
9052;SDS011;4561;47.450;7.516;2022-08-04T21:22:20;1.63;;;1.52;;
9052;SDS011;4561;47.450;7.516;2022-08-04T21:25:41;1.90;;;1.70;;
9052;SDS011;4561;47.450;7.516;2022-08-04T21:29:01;4.38;;;1.77;;
9052;SDS011;4561;47.450;7.516;2022-08-04T21:32:22;2.10;;;1.80;;
9052;SDS011;4561;47.450;7.516;2022-08-04T21:35:42;2.95;;;2.10;;
9052;SDS011;4561;47.450;7.516;2022-08-04T21:39:03;1.70;;;1.60;;
9052;SDS011;4561;47.450;7.516;2022-08-04T21:42:24;1.90;;;1.60;;
9052;SDS011;4561;47.450;7.516;2022-08-04T21:45:44;4.47;;;1.92;;
9052;SDS011;4561;47.450;7.516;2022-08-04T21:49:04;1.95;;;1.83;;
9052;SDS011;4561;47.450;7.516;2022-08-04T21:52:25;2.58;;;1.70;;
9052;SDS011;4561;47.450;7.516;2022-08-04T21:55:48;2.45;;;1.85;;
9052;SDS011;4561;47.450;7.516;2022-08-04T21:59:08;4.05;;;1.83;;
9052;SDS011;4561;47.450;7.516;2022-08-04T22:02:31;3.05;;;2.13;;
9052;SDS011;4561;47.450;7.516;2022-08-04T22:05:51;2.17;;;1.90;;
9052;SDS011;4561;47.450;7.516;2022-08-04T22:09:12;3.28;;;1.90;;
9052;SDS011;4561;47.450;7.516;2022-08-04T22:12:32;2.55;;;1.70;;
9052;SDS011;4561;47.450;7.516;2022-08-04T22:15:52;1.98;;;1.83;;
9052;SDS011;4561;47.450;7.516;2022-08-04T22:19:13;2.22;;;1.98;;
9052;SDS011;4561;47.450;7.516;2022-08-04T22:22:33;2.83;;;2.05;;
9052;SDS011;4561;47.450;7.516;2022-08-04T22:25:57;4.65;;;2.17;;
9052;SDS011;4561;47.450;7.516;2022-08-04T22:29:20;3.65;;;2.13;;
9052;SDS011;4561;47.450;7.516;2022-08-04T22:32:40;3.78;;;2.05;;
9052;SDS011;4561;47.450;7.516;2022-08-04T22:36:01;2.10;;;2.00;;
9052;SDS011;4561;47.450;7.516;2022-08-04T22:39:21;2.40;;;1.88;;
9052;SDS011;4561;47.450;7.516;2022-08-04T22:42:41;2.10;;;1.98;;
9052;SDS011;4561;47.450;7.516;2022-08-04T22:46:07;1.95;;;1.60;;
9052;SDS011;4561;47.450;7.516;2022-08-04T22:49:28;2.28;;;1.88;;
9052;SDS011;4561;47.450;7.516;2022-08-04T22:52:51;3.78;;;1.88;;
9052;SDS011;4561;47.450;7.516;2022-08-04T22:56:12;3.05;;;1.90;;
9052;SDS011;4561;47.450;7.516;2022-08-04T22:59:35;4.20;;;2.17;;
9052;SDS011;4561;47.450;7.516;2022-08-04T23:02:55;4.35;;;2.10;;
9052;SDS011;4561;47.450;7.516;2022-08-04T23:06:18;3.90;;;2.35;;
9052;SDS011;4561;47.450;7.516;2022-08-04T23:09:38;5.63;;;2.35;;
9052;SDS011;4561;47.450;7.516;2022-08-04T23:12:58;2.15;;;2.03;;
9052;SDS011;4561;47.450;7.516;2022-08-04T23:16:19;3.78;;;1.95;;
9052;SDS011;4561;47.450;7.516;2022-08-04T23:19:41;3.97;;;2.42;;
9052;SDS011;4561;47.450;7.516;2022-08-04T23:23:01;2.50;;;2.30;;
9052;SDS011;4561;47.450;7.516;2022-08-04T23:26:22;2.03;;;1.92;;
9052;SDS011;4561;47.450;7.516;2022-08-04T23:29:43;4.38;;;1.52;;
9052;SDS011;4561;47.450;7.516;2022-08-04T23:33:03;4.72;;;2.00;;
9052;SDS011;4561;47.450;7.516;2022-08-04T23:36:23;2.45;;;2.03;;
9052;SDS011;4561;47.450;7.516;2022-08-04T23:39:44;2.08;;;1.92;;
9052;SDS011;4561;47.450;7.516;2022-08-04T23:43:05;2.13;;;1.70;;
9052;SDS011;4561;47.450;7.516;2022-08-04T23:46:25;1.70;;;1.60;;
9052;SDS011;4561;47.450;7.516;2022-08-04T23:49:46;1.50;;;1.40;;
9052;SDS011;4561;47.450;7.516;2022-08-04T23:53:09;3.85;;;1.63;;
9052;SDS011;4561;47.450;7.516;2022-08-04T23:56:32;2.90;;;1.77;;
9052;SDS011;4561;47.450;7.516;2022-08-04T23:59:57;1.77;;;1.60;;
